sensor_id;sensor_type;location;lat;lon;timestamp;temperature;humidity
23065;DHT22;17153;51.212;3.228;2022-07-23T00:00:53;21.90;95.10
23065;DHT22;17153;51.212;3.228;2022-07-23T00:03:19;21.90;95.10
23065;DHT22;17153;51.212;3.228;2022-07-23T00:05:45;21.90;95.20
23065;DHT22;17153;51.212;3.228;2022-07-23T00:08:11;21.90;95.20
23065;DHT22;17153;51.212;3.228;2022-07-23T00:10:37;21.90;95.20
23065;DHT22;17153;51.212;3.228;2022-07-23T00:13:02;21.90;95.30
23065;DHT22;17153;51.212;3.228;2022-07-23T00:15:29;21.80;95.30
23065;DHT22;17153;51.212;3.228;2022-07-23T00:17:54;21.80;95.30
23065;DHT22;17153;51.212;3.228;2022-07-23T00:20:23;21.80;95.40
23065;DHT22;17153;51.212;3.228;2022-07-23T00:22:50;21.80;95.40
23065;DHT22;17153;51.212;3.228;2022-07-23T00:25:16;21.80;95.40
23065;DHT22;17153;51.212;3.228;2022-07-23T00:27:42;21.80;95.50
23065;DHT22;17153;51.212;3.228;2022-07-23T00:30:08;21.80;95.50
23065;DHT22;17153;51.212;3.228;2022-07-23T00:32:51;21.80;95.50
23065;DHT22;17153;51.212;3.228;2022-07-23T00:35:20;21.70;95.50
23065;DHT22;17153;51.212;3.228;2022-07-23T00:37:46;21.70;95.50
23065;DHT22;17153;51.212;3.228;2022-07-23T00:40:12;21.70;95.60
23065;DHT22;17153;51.212;3.228;2022-07-23T00:42:38;21.70;95.60
23065;DHT22;17153;51.212;3.228;2022-07-23T00:45:04;21.70;95.60
23065;DHT22;17153;51.212;3.228;2022-07-23T00:47:30;21.70;95.70
23065;DHT22;17153;51.212;3.228;2022-07-23T00:49:56;21.70;95.60
23065;DHT22;17153;51.212;3.228;2022-07-23T00:52:22;21.70;95.70
23065;DHT22;17153;51.212;3.228;2022-07-23T00:54:48;21.60;95.60
23065;DHT22;17153;51.212;3.228;2022-07-23T00:57:14;21.60;95.70
23065;DHT22;17153;51.212;3.228;2022-07-23T01:00:11;21.60;95.80
23065;DHT22;17153;51.212;3.228;2022-07-23T01:02:37;21.50;95.80
23065;DHT22;17153;51.212;3.228;2022-07-23T01:05:04;21.50;95.80
23065;DHT22;17153;51.212;3.228;2022-07-23T01:07:29;21.50;95.90
23065;DHT22;17153;51.212;3.228;2022-07-23T01:09:55;21.50;95.90
23065;DHT22;17153;51.212;3.228;2022-07-23T01:12:21;21.50;95.90
23065;DHT22;17153;51.212;3.228;2022-07-23T01:14:54;21.50;96.00
23065;DHT22;17153;51.212;3.228;2022-07-23T01:17:20;21.40;96.00
23065;DHT22;17153;51.212;3.228;2022-07-23T01:19:46;21.40;96.00
23065;DHT22;17153;51.212;3.228;2022-07-23T01:22:12;21.40;96.00
23065;DHT22;17153;51.212;3.228;2022-07-23T01:24:38;21.40;96.00
23065;DHT22;17153;51.212;3.228;2022-07-23T01:27:03;21.40;96.10
23065;DHT22;17153;51.212;3.228;2022-07-23T01:29:30;21.40;96.00
23065;DHT22;17153;51.212;3.228;2022-07-23T01:31:56;21.40;96.00
23065;DHT22;17153;51.212;3.228;2022-07-23T01:34:22;21.30;96.10
23065;DHT22;17153;51.212;3.228;2022-07-23T01:36:47;21.30;96.20
23065;DHT22;17153;51.212;3.228;2022-07-23T01:39:13;21.30;96.20
23065;DHT22;17153;51.212;3.228;2022-07-23T01:41:38;21.30;96.20
23065;DHT22;17153;51.212;3.228;2022-07-23T01:44:04;21.30;96.50
23065;DHT22;17153;51.212;3.228;2022-07-23T01:46:30;21.30;96.20
23065;DHT22;17153;51.212;3.228;2022-07-23T01:48:55;21.30;96.30
23065;DHT22;17153;51.212;3.228;2022-07-23T01:51:21;21.30;96.30
23065;DHT22;17153;51.212;3.228;2022-07-23T01:53:47;21.30;96.40
23065;DHT22;17153;51.212;3.228;2022-07-23T01:56:12;21.30;96.40
23065;DHT22;17153;51.212;3.228;2022-07-23T01:58:40;21.30;96.40
23065;DHT22;17153;51.212;3.228;2022-07-23T02:01:06;21.30;96.40
23065;DHT22;17153;51.212;3.228;2022-07-23T02:03:31;21.20;96.40
23065;DHT22;17153;51.212;3.228;2022-07-23T02:05:57;21.20;96.50
23065;DHT22;17153;51.212;3.228;2022-07-23T02:08:23;21.20;96.40
23065;DHT22;17153;51.212;3.228;2022-07-23T02:10:48;21.20;96.50
23065;DHT22;17153;51.212;3.228;2022-07-23T02:13:16;21.20;96.50
23065;DHT22;17153;51.212;3.228;2022-07-23T02:15:42;21.20;96.50
23065;DHT22;17153;51.212;3.228;2022-07-23T02:18:08;21.20;96.60
23065;DHT22;17153;51.212;3.228;2022-07-23T02:20:34;21.20;96.60
23065;DHT22;17153;51.212;3.228;2022-07-23T02:23:00;21.20;96.70
23065;DHT22;17153;51.212;3.228;2022-07-23T02:25:25;21.20;96.70
23065;DHT22;17153;51.212;3.228;2022-07-23T02:27:51;21.20;96.70
23065;DHT22;17153;51.212;3.228;2022-07-23T02:30:17;21.20;96.80
23065;DHT22;17153;51.212;3.228;2022-07-23T02:32:43;21.10;96.80
23065;DHT22;17153;51.212;3.228;2022-07-23T02:35:08;21.20;96.80
23065;DHT22;17153;51.212;3.228;2022-07-23T02:37:34;21.10;96.70
23065;DHT22;17153;51.212;3.228;2022-07-23T02:40:00;21.10;96.70
23065;DHT22;17153;51.212;3.228;2022-07-23T02:42:25;21.10;96.80
23065;DHT22;17153;51.212;3.228;2022-07-23T02:44:51;21.10;96.90
23065;DHT22;17153;51.212;3.228;2022-07-23T02:47:17;21.10;96.90
23065;DHT22;17153;51.212;3.228;2022-07-23T02:49:43;21.10;97.00
23065;DHT22;17153;51.212;3.228;2022-07-23T02:52:08;21.10;97.00
23065;DHT22;17153;51.212;3.228;2022-07-23T02:54:36;21.10;97.00
23065;DHT22;17153;51.212;3.228;2022-07-23T02:57:02;21.10;97.10
23065;DHT22;17153;51.212;3.228;2022-07-23T02:59:28;21.10;97.10
23065;DHT22;17153;51.212;3.228;2022-07-23T03:01:53;21.10;97.10
23065;DHT22;17153;51.212;3.228;2022-07-23T03:04:20;21.10;97.10
23065;DHT22;17153;51.212;3.228;2022-07-23T03:06:45;21.10;97.10
23065;DHT22;17153;51.212;3.228;2022-07-23T03:09:11;21.10;97.10
23065;DHT22;17153;51.212;3.228;2022-07-23T03:11:37;21.10;97.10
23065;DHT22;17153;51.212;3.228;2022-07-23T03:14:02;21.10;97.20
23065;DHT22;17153;51.212;3.228;2022-07-23T03:16:28;21.10;97.20
23065;DHT22;17153;51.212;3.228;2022-07-23T03:18:54;21.10;97.20
23065;DHT22;17153;51.212;3.228;2022-07-23T03:21:19;21.10;97.20
23065;DHT22;17153;51.212;3.228;2022-07-23T03:23:45;21.10;97.20
23065;DHT22;17153;51.212;3.228;2022-07-23T03:26:11;21.10;97.20
23065;DHT22;17153;51.212;3.228;2022-07-23T03:28:36;21.10;97.20
23065;DHT22;17153;51.212;3.228;2022-07-23T03:31:02;21.10;97.60
23065;DHT22;17153;51.212;3.228;2022-07-23T03:33:27;21.10;97.20
23065;DHT22;17153;51.212;3.228;2022-07-23T03:35:53;21.00;97.20
23065;DHT22;17153;51.212;3.228;2022-07-23T03:38:19;21.00;97.30
23065;DHT22;17153;51.212;3.228;2022-07-23T03:40:44;21.00;97.30
23065;DHT22;17153;51.212;3.228;2022-07-23T03:43:10;21.00;97.30
23065;DHT22;17153;51.212;3.228;2022-07-23T03:45:35;21.00;97.30
23065;DHT22;17153;51.212;3.228;2022-07-23T03:48:01;21.00;97.30
23065;DHT22;17153;51.212;3.228;2022-07-23T03:50:27;21.00;97.40
23065;DHT22;17153;51.212;3.228;2022-07-23T03:52:53;21.00;97.40
23065;DHT22;17153;51.212;3.228;2022-07-23T03:55:19;21.00;97.40
23065;DHT22;17153;51.212;3.228;2022-07-23T03:57:45;21.00;97.50
23065;DHT22;17153;51.212;3.228;2022-07-23T04:00:11;21.00;97.50
23065;DHT22;17153;51.212;3.228;2022-07-23T04:02:39;21.00;97.80
23065;DHT22;17153;51.212;3.228;2022-07-23T04:05:05;21.00;97.50
23065;DHT22;17153;51.212;3.228;2022-07-23T04:07:31;21.00;97.60
23065;DHT22;17153;51.212;3.228;2022-07-23T04:09:57;21.00;97.60
23065;DHT22;17153;51.212;3.228;2022-07-23T04:12:23;21.00;97.60
23065;DHT22;17153;51.212;3.228;2022-07-23T04:14:49;21.00;97.60
23065;DHT22;17153;51.212;3.228;2022-07-23T04:17:15;21.00;97.70
23065;DHT22;17153;51.212;3.228;2022-07-23T04:19:40;20.90;97.70
23065;DHT22;17153;51.212;3.228;2022-07-23T04:22:08;21.00;97.70
23065;DHT22;17153;51.212;3.228;2022-07-23T04:24:34;20.90;97.70
23065;DHT22;17153;51.212;3.228;2022-07-23T04:27:01;20.90;97.80
23065;DHT22;17153;51.212;3.228;2022-07-23T04:29:27;20.90;97.80
23065;DHT22;17153;51.212;3.228;2022-07-23T04:31:52;20.90;97.90
23065;DHT22;17153;51.212;3.228;2022-07-23T04:34:18;20.90;97.90
23065;DHT22;17153;51.212;3.228;2022-07-23T04:36:44;20.80;97.90
23065;DHT22;17153;51.212;3.228;2022-07-23T04:39:10;20.80;97.90
23065;DHT22;17153;51.212;3.228;2022-07-23T04:41:35;20.80;97.90
23065;DHT22;17153;51.212;3.228;2022-07-23T04:44:01;20.80;97.90
23065;DHT22;17153;51.212;3.228;2022-07-23T04:46:27;20.80;97.90
23065;DHT22;17153;51.212;3.228;2022-07-23T04:48:53;20.80;97.90
23065;DHT22;17153;51.212;3.228;2022-07-23T04:51:19;20.80;98.00
23065;DHT22;17153;51.212;3.228;2022-07-23T04:53:45;20.80;98.00
23065;DHT22;17153;51.212;3.228;2022-07-23T04:56:10;20.80;98.00
23065;DHT22;17153;51.212;3.228;2022-07-23T04:58:36;20.80;98.00
23065;DHT22;17153;51.212;3.228;2022-07-23T05:01:02;20.80;98.00
23065;DHT22;17153;51.212;3.228;2022-07-23T05:03:28;20.70;98.00
23065;DHT22;17153;51.212;3.228;2022-07-23T05:05:54;20.70;98.10
23065;DHT22;17153;51.212;3.228;2022-07-23T05:08:20;20.80;98.00
23065;DHT22;17153;51.212;3.228;2022-07-23T05:10:46;20.80;98.00
23065;DHT22;17153;51.212;3.228;2022-07-23T05:13:11;20.80;98.00
23065;DHT22;17153;51.212;3.228;2022-07-23T05:15:37;20.80;98.00
23065;DHT22;17153;51.212;3.228;2022-07-23T05:18:03;20.80;98.00
23065;DHT22;17153;51.212;3.228;2022-07-23T05:20:28;20.80;98.10
23065;DHT22;17153;51.212;3.228;2022-07-23T05:22:54;20.80;98.10
23065;DHT22;17153;51.212;3.228;2022-07-23T05:25:20;20.80;98.10
23065;DHT22;17153;51.212;3.228;2022-07-23T05:27:46;20.80;98.10
23065;DHT22;17153;51.212;3.228;2022-07-23T05:30:11;20.80;98.20
23065;DHT22;17153;51.212;3.228;2022-07-23T05:32:37;20.80;98.20
23065;DHT22;17153;51.212;3.228;2022-07-23T05:35:05;20.80;98.20
23065;DHT22;17153;51.212;3.228;2022-07-23T05:37:30;20.80;98.30
23065;DHT22;17153;51.212;3.228;2022-07-23T05:40:03;20.90;98.30
23065;DHT22;17153;51.212;3.228;2022-07-23T05:42:29;20.90;98.20
23065;DHT22;17153;51.212;3.228;2022-07-23T05:44:55;20.90;98.30
23065;DHT22;17153;51.212;3.228;2022-07-23T05:47:20;20.90;98.40
23065;DHT22;17153;51.212;3.228;2022-07-23T05:49:46;20.80;98.40
23065;DHT22;17153;51.212;3.228;2022-07-23T05:52:12;20.90;98.40
23065;DHT22;17153;51.212;3.228;2022-07-23T05:54:37;20.90;98.50
23065;DHT22;17153;51.212;3.228;2022-07-23T05:57:03;20.80;98.40
23065;DHT22;17153;51.212;3.228;2022-07-23T05:59:29;20.90;98.40
23065;DHT22;17153;51.212;3.228;2022-07-23T06:01:55;20.90;98.40
23065;DHT22;17153;51.212;3.228;2022-07-23T06:04:21;21.00;98.40
23065;DHT22;17153;51.212;3.228;2022-07-23T06:06:46;20.90;98.30
23065;DHT22;17153;51.212;3.228;2022-07-23T06:09:12;20.90;98.30
23065;DHT22;17153;51.212;3.228;2022-07-23T06:11:39;21.00;98.30
23065;DHT22;17153;51.212;3.228;2022-07-23T06:14:05;21.00;98.20
23065;DHT22;17153;51.212;3.228;2022-07-23T06:16:31;20.90;98.20
23065;DHT22;17153;51.212;3.228;2022-07-23T06:18:56;21.00;98.30
23065;DHT22;17153;51.212;3.228;2022-07-23T06:21:22;21.00;98.30
23065;DHT22;17153;51.212;3.228;2022-07-23T06:23:48;21.00;98.30
23065;DHT22;17153;51.212;3.228;2022-07-23T06:26:13;21.00;98.30
23065;DHT22;17153;51.212;3.228;2022-07-23T06:28:39;21.00;98.30
23065;DHT22;17153;51.212;3.228;2022-07-23T06:31:04;21.00;98.20
23065;DHT22;17153;51.212;3.228;2022-07-23T06:33:30;21.00;98.20
23065;DHT22;17153;51.212;3.228;2022-07-23T06:35:56;21.00;98.10
23065;DHT22;17153;51.212;3.228;2022-07-23T06:38:21;21.00;98.00
23065;DHT22;17153;51.212;3.228;2022-07-23T06:40:47;20.90;98.10
23065;DHT22;17153;51.212;3.228;2022-07-23T06:43:13;21.00;98.10
23065;DHT22;17153;51.212;3.228;2022-07-23T06:45:38;21.10;98.00
23065;DHT22;17153;51.212;3.228;2022-07-23T06:48:04;21.10;98.00
23065;DHT22;17153;51.212;3.228;2022-07-23T06:50:30;21.10;98.10
23065;DHT22;17153;51.212;3.228;2022-07-23T06:52:56;21.10;98.10
23065;DHT22;17153;51.212;3.228;2022-07-23T06:55:21;21.10;98.10
23065;DHT22;17153;51.212;3.228;2022-07-23T06:57:47;21.20;97.90
23065;DHT22;17153;51.212;3.228;2022-07-23T07:00:13;21.30;97.90
23065;DHT22;17153;51.212;3.228;2022-07-23T07:02:39;21.20;97.90
23065;DHT22;17153;51.212;3.228;2022-07-23T07:05:05;21.30;98.00
23065;DHT22;17153;51.212;3.228;2022-07-23T07:07:30;21.40;98.00
23065;DHT22;17153;51.212;3.228;2022-07-23T07:09:56;21.40;97.60
23065;DHT22;17153;51.212;3.228;2022-07-23T07:12:22;21.50;97.40
23065;DHT22;17153;51.212;3.228;2022-07-23T07:14:47;21.40;97.30
23065;DHT22;17153;51.212;3.228;2022-07-23T07:17:13;21.40;97.50
23065;DHT22;17153;51.212;3.228;2022-07-23T07:19:40;21.40;97.60
23065;DHT22;17153;51.212;3.228;2022-07-23T07:22:06;21.50;97.70
23065;DHT22;17153;51.212;3.228;2022-07-23T07:24:32;21.40;97.70
23065;DHT22;17153;51.212;3.228;2022-07-23T07:26:57;21.40;97.80
23065;DHT22;17153;51.212;3.228;2022-07-23T07:29:23;21.50;97.70
23065;DHT22;17153;51.212;3.228;2022-07-23T07:31:48;21.50;97.80
23065;DHT22;17153;51.212;3.228;2022-07-23T07:34:14;21.50;97.70
23065;DHT22;17153;51.212;3.228;2022-07-23T07:36:40;21.60;97.60
23065;DHT22;17153;51.212;3.228;2022-07-23T07:39:05;21.60;97.40
23065;DHT22;17153;51.212;3.228;2022-07-23T07:41:32;21.70;97.10
23065;DHT22;17153;51.212;3.228;2022-07-23T07:43:58;21.80;97.10
23065;DHT22;17153;51.212;3.228;2022-07-23T07:46:23;21.80;97.00
23065;DHT22;17153;51.212;3.228;2022-07-23T07:48:50;21.90;97.00
23065;DHT22;17153;51.212;3.228;2022-07-23T07:51:15;21.90;96.80
23065;DHT22;17153;51.212;3.228;2022-07-23T07:53:41;22.00;96.60
23065;DHT22;17153;51.212;3.228;2022-07-23T07:56:07;22.00;96.70
23065;DHT22;17153;51.212;3.228;2022-07-23T07:58:33;22.10;96.80
23065;DHT22;17153;51.212;3.228;2022-07-23T08:00:58;22.00;96.80
23065;DHT22;17153;51.212;3.228;2022-07-23T08:03:24;22.00;96.90
23065;DHT22;17153;51.212;3.228;2022-07-23T08:05:50;22.10;96.90
23065;DHT22;17153;51.212;3.228;2022-07-23T08:08:15;22.10;96.90
23065;DHT22;17153;51.212;3.228;2022-07-23T08:10:41;22.00;96.90
23065;DHT22;17153;51.212;3.228;2022-07-23T08:13:07;22.10;96.80
23065;DHT22;17153;51.212;3.228;2022-07-23T08:15:33;22.20;96.70
23065;DHT22;17153;51.212;3.228;2022-07-23T08:17:59;22.30;96.60
23065;DHT22;17153;51.212;3.228;2022-07-23T08:20:25;22.40;96.60
23065;DHT22;17153;51.212;3.228;2022-07-23T08:22:54;22.50;95.60
23065;DHT22;17153;51.212;3.228;2022-07-23T08:25:27;22.50;95.40
23065;DHT22;17153;51.212;3.228;2022-07-23T08:27:54;22.50;95.50
23065;DHT22;17153;51.212;3.228;2022-07-23T08:30:20;22.50;95.20
23065;DHT22;17153;51.212;3.228;2022-07-23T08:35:27;22.70;95.10
23065;DHT22;17153;51.212;3.228;2022-07-23T08:37:54;22.70;95.50
23065;DHT22;17153;51.212;3.228;2022-07-23T08:40:20;22.70;95.50
23065;DHT22;17153;51.212;3.228;2022-07-23T08:42:49;22.70;95.60
23065;DHT22;17153;51.212;3.228;2022-07-23T08:45:20;22.80;95.60
23065;DHT22;17153;51.212;3.228;2022-07-23T08:47:54;23.00;95.50
23065;DHT22;17153;51.212;3.228;2022-07-23T08:50:22;23.00;95.20
23065;DHT22;17153;51.212;3.228;2022-07-23T08:52:49;23.20;94.70
23065;DHT22;17153;51.212;3.228;2022-07-23T08:55:21;23.20;94.80
23065;DHT22;17153;51.212;3.228;2022-07-23T08:57:49;23.30;94.90
23065;DHT22;17153;51.212;3.228;2022-07-23T09:00:15;23.40;94.70
23065;DHT22;17153;51.212;3.228;2022-07-23T09:02:42;23.40;94.60
23065;DHT22;17153;51.212;3.228;2022-07-23T09:05:09;23.60;94.00
23065;DHT22;17153;51.212;3.228;2022-07-23T09:07:37;23.80;93.90
23065;DHT22;17153;51.212;3.228;2022-07-23T09:10:10;23.80;94.00
23065;DHT22;17153;51.212;3.228;2022-07-23T09:12:37;23.90;94.00
23065;DHT22;17153;51.212;3.228;2022-07-23T09:15:08;24.10;93.80
23065;DHT22;17153;51.212;3.228;2022-07-23T09:17:41;24.10;93.30
23065;DHT22;17153;51.212;3.228;2022-07-23T09:20:13;24.30;92.30
23065;DHT22;17153;51.212;3.228;2022-07-23T09:22:44;24.40;92.30
23065;DHT22;17153;51.212;3.228;2022-07-23T09:25:14;24.50;92.50
23065;DHT22;17153;51.212;3.228;2022-07-23T09:27:58;24.60;92.20
23065;DHT22;17153;51.212;3.228;2022-07-23T09:30:30;24.60;92.00
23065;DHT22;17153;51.212;3.228;2022-07-23T09:33:08;24.50;92.00
23065;DHT22;17153;51.212;3.228;2022-07-23T09:35:54;24.40;90.90
23065;DHT22;17153;51.212;3.228;2022-07-23T09:38:22;24.40;90.70
23065;DHT22;17153;51.212;3.228;2022-07-23T09:41:07;24.70;91.40
23065;DHT22;17153;51.212;3.228;2022-07-23T09:43:33;24.80;91.50
23065;DHT22;17153;51.212;3.228;2022-07-23T09:46:19;24.90;91.20
23065;DHT22;17153;51.212;3.228;2022-07-23T09:48:46;25.20;89.80
23065;DHT22;17153;51.212;3.228;2022-07-23T09:51:12;25.30;89.60
23065;DHT22;17153;51.212;3.228;2022-07-23T09:53:40;25.40;90.10
23065;DHT22;17153;51.212;3.228;2022-07-23T09:56:06;25.40;90.40
23065;DHT22;17153;51.212;3.228;2022-07-23T09:58:32;25.30;90.60
23065;DHT22;17153;51.212;3.228;2022-07-23T10:00:59;25.40;90.70
23065;DHT22;17153;51.212;3.228;2022-07-23T10:03:25;25.50;90.60
23065;DHT22;17153;51.212;3.228;2022-07-23T10:05:51;25.60;90.10
23065;DHT22;17153;51.212;3.228;2022-07-23T10:08:19;25.50;90.20
23065;DHT22;17153;51.212;3.228;2022-07-23T10:10:48;25.50;90.80
23065;DHT22;17153;51.212;3.228;2022-07-23T10:13:15;25.70;90.20
23065;DHT22;17153;51.212;3.228;2022-07-23T10:15:59;25.80;89.60
23065;DHT22;17153;51.212;3.228;2022-07-23T10:18:25;25.90;89.30
23065;DHT22;17153;51.212;3.228;2022-07-23T10:20:51;25.90;89.60
23065;DHT22;17153;51.212;3.228;2022-07-23T10:23:22;25.90;88.80
23065;DHT22;17153;51.212;3.228;2022-07-23T10:28:57;25.90;88.90
23065;DHT22;17153;51.212;3.228;2022-07-23T10:36:49;26.10;87.60
23065;DHT22;17153;51.212;3.228;2022-07-23T10:39:33;26.40;85.80
23065;DHT22;17153;51.212;3.228;2022-07-23T10:42:13;26.50;86.00
23065;DHT22;17153;51.212;3.228;2022-07-23T10:44:42;26.70;85.50
23065;DHT22;17153;51.212;3.228;2022-07-23T10:47:09;26.80;84.60
23065;DHT22;17153;51.212;3.228;2022-07-23T10:49:53;26.80;84.40
23065;DHT22;17153;51.212;3.228;2022-07-23T10:52:24;26.90;84.90
23065;DHT22;17153;51.212;3.228;2022-07-23T10:54:54;26.80;84.70
23065;DHT22;17153;51.212;3.228;2022-07-23T10:57:22;26.90;85.10
23065;DHT22;17153;51.212;3.228;2022-07-23T11:02:38;27.00;85.00
23065;DHT22;17153;51.212;3.228;2022-07-23T11:05:17;26.90;85.50
23065;DHT22;17153;51.212;3.228;2022-07-23T11:10:45;27.00;84.20
23065;DHT22;17153;51.212;3.228;2022-07-23T11:13:30;27.10;84.20
23065;DHT22;17153;51.212;3.228;2022-07-23T11:24:16;27.10;84.00
23065;DHT22;17153;51.212;3.228;2022-07-23T11:26:52;27.20;84.50
23065;DHT22;17153;51.212;3.228;2022-07-23T11:34:46;27.60;84.50
23065;DHT22;17153;51.212;3.228;2022-07-23T11:39:55;27.60;84.10
23065;DHT22;17153;51.212;3.228;2022-07-23T11:42:21;27.40;84.50
23065;DHT22;17153;51.212;3.228;2022-07-23T11:44:47;27.40;84.50
23065;DHT22;17153;51.212;3.228;2022-07-23T11:47:13;27.50;84.50
23065;DHT22;17153;51.212;3.228;2022-07-23T11:49:45;27.70;84.50
23065;DHT22;17153;51.212;3.228;2022-07-23T11:52:17;27.60;84.40
23065;DHT22;17153;51.212;3.228;2022-07-23T11:54:55;27.60;84.80
23065;DHT22;17153;51.212;3.228;2022-07-23T11:57:26;27.80;84.20
23065;DHT22;17153;51.212;3.228;2022-07-23T11:59:55;27.90;83.90
23065;DHT22;17153;51.212;3.228;2022-07-23T12:02:21;28.00;83.80
23065;DHT22;17153;51.212;3.228;2022-07-23T12:04:49;27.90;84.00
23065;DHT22;17153;51.212;3.228;2022-07-23T12:10:00;28.00;83.40
23065;DHT22;17153;51.212;3.228;2022-07-23T12:12:26;27.90;83.40
23065;DHT22;17153;51.212;3.228;2022-07-23T12:14:57;27.90;83.60
23065;DHT22;17153;51.212;3.228;2022-07-23T12:17:34;27.80;84.00
23065;DHT22;17153;51.212;3.228;2022-07-23T12:20:02;27.80;83.60
23065;DHT22;17153;51.212;3.228;2022-07-23T12:22:45;27.90;84.20
23065;DHT22;17153;51.212;3.228;2022-07-23T12:25:21;27.90;84.50
23065;DHT22;17153;51.212;3.228;2022-07-23T12:28:03;28.10;84.30
23065;DHT22;17153;51.212;3.228;2022-07-23T12:30:32;28.20;84.60
23065;DHT22;17153;51.212;3.228;2022-07-23T12:32:59;28.30;83.20
23065;DHT22;17153;51.212;3.228;2022-07-23T12:35:44;28.30;83.10
23065;DHT22;17153;51.212;3.228;2022-07-23T12:38:19;28.30;82.80
23065;DHT22;17153;51.212;3.228;2022-07-23T12:43:23;28.30;84.50
23065;DHT22;17153;51.212;3.228;2022-07-23T12:46:04;28.30;85.40
23065;DHT22;17153;51.212;3.228;2022-07-23T12:48:49;28.40;85.70
23065;DHT22;17153;51.212;3.228;2022-07-23T12:51:17;28.50;85.70
23065;DHT22;17153;51.212;3.228;2022-07-23T12:53:49;28.50;85.20
23065;DHT22;17153;51.212;3.228;2022-07-23T12:56:18;28.50;85.30
23065;DHT22;17153;51.212;3.228;2022-07-23T12:58:52;28.40;85.40
23065;DHT22;17153;51.212;3.228;2022-07-23T13:04:14;28.40;85.50
23065;DHT22;17153;51.212;3.228;2022-07-23T13:07:00;28.60;85.50
23065;DHT22;17153;51.212;3.228;2022-07-23T13:09:31;28.60;85.10
23065;DHT22;17153;51.212;3.228;2022-07-23T13:11:58;28.70;84.60
23065;DHT22;17153;51.212;3.228;2022-07-23T13:14:25;28.90;84.40
23065;DHT22;17153;51.212;3.228;2022-07-23T13:16:52;28.90;84.00
23065;DHT22;17153;51.212;3.228;2022-07-23T13:19:19;29.10;82.50
23065;DHT22;17153;51.212;3.228;2022-07-23T13:21:45;29.20;83.10
23065;DHT22;17153;51.212;3.228;2022-07-23T13:24:11;29.20;83.60
23065;DHT22;17153;51.212;3.228;2022-07-23T13:26:38;29.20;83.70
23065;DHT22;17153;51.212;3.228;2022-07-23T13:29:05;29.30;83.60
23065;DHT22;17153;51.212;3.228;2022-07-23T13:31:30;29.30;83.70
23065;DHT22;17153;51.212;3.228;2022-07-23T13:33:56;29.40;83.40
23065;DHT22;17153;51.212;3.228;2022-07-23T13:36:22;29.50;83.90
23065;DHT22;17153;51.212;3.228;2022-07-23T13:38:47;29.50;84.10
23065;DHT22;17153;51.212;3.228;2022-07-23T13:41:13;29.50;84.50
23065;DHT22;17153;51.212;3.228;2022-07-23T13:43:41;29.40;84.40
23065;DHT22;17153;51.212;3.228;2022-07-23T13:46:07;29.40;84.30
23065;DHT22;17153;51.212;3.228;2022-07-23T13:48:33;29.40;84.30
23065;DHT22;17153;51.212;3.228;2022-07-23T13:50:58;29.40;84.50
23065;DHT22;17153;51.212;3.228;2022-07-23T13:53:24;29.30;84.70
23065;DHT22;17153;51.212;3.228;2022-07-23T13:55:51;29.30;84.60
23065;DHT22;17153;51.212;3.228;2022-07-23T13:58:18;29.20;84.50
23065;DHT22;17153;51.212;3.228;2022-07-23T14:00:46;29.20;84.60
23065;DHT22;17153;51.212;3.228;2022-07-23T14:03:13;29.20;84.90
23065;DHT22;17153;51.212;3.228;2022-07-23T14:05:38;29.10;85.00
23065;DHT22;17153;51.212;3.228;2022-07-23T14:08:05;29.20;84.90
23065;DHT22;17153;51.212;3.228;2022-07-23T14:10:31;29.30;85.10
23065;DHT22;17153;51.212;3.228;2022-07-23T14:12:57;29.30;85.10
23065;DHT22;17153;51.212;3.228;2022-07-23T14:15:28;29.30;85.20
23065;DHT22;17153;51.212;3.228;2022-07-23T14:17:54;29.40;84.60
23065;DHT22;17153;51.212;3.228;2022-07-23T14:20:20;29.30;84.70
23065;DHT22;17153;51.212;3.228;2022-07-23T14:22:46;29.40;84.60
23065;DHT22;17153;51.212;3.228;2022-07-23T14:25:12;29.40;84.60
23065;DHT22;17153;51.212;3.228;2022-07-23T14:27:38;29.40;85.40
23065;DHT22;17153;51.212;3.228;2022-07-23T14:30:08;29.40;84.70
23065;DHT22;17153;51.212;3.228;2022-07-23T14:32:35;29.40;84.50
23065;DHT22;17153;51.212;3.228;2022-07-23T14:35:01;29.50;83.70
23065;DHT22;17153;51.212;3.228;2022-07-23T14:37:26;29.50;84.10
23065;DHT22;17153;51.212;3.228;2022-07-23T14:39:52;29.40;83.90
23065;DHT22;17153;51.212;3.228;2022-07-23T14:42:18;29.40;84.20
23065;DHT22;17153;51.212;3.228;2022-07-23T14:44:44;29.40;84.30
23065;DHT22;17153;51.212;3.228;2022-07-23T14:47:10;29.50;84.70
23065;DHT22;17153;51.212;3.228;2022-07-23T14:49:35;29.50;84.80
23065;DHT22;17153;51.212;3.228;2022-07-23T14:52:03;29.40;84.60
23065;DHT22;17153;51.212;3.228;2022-07-23T14:54:29;29.40;84.60
23065;DHT22;17153;51.212;3.228;2022-07-23T14:56:55;29.40;84.40
23065;DHT22;17153;51.212;3.228;2022-07-23T14:59:21;29.40;84.50
23065;DHT22;17153;51.212;3.228;2022-07-23T15:01:48;29.30;84.50
23065;DHT22;17153;51.212;3.228;2022-07-23T15:04:14;29.40;84.60
23065;DHT22;17153;51.212;3.228;2022-07-23T15:06:40;29.40;85.10
23065;DHT22;17153;51.212;3.228;2022-07-23T15:09:06;29.40;85.40
23065;DHT22;17153;51.212;3.228;2022-07-23T15:11:31;29.50;85.50
23065;DHT22;17153;51.212;3.228;2022-07-23T15:14:00;29.40;85.20
23065;DHT22;17153;51.212;3.228;2022-07-23T15:16:26;29.40;85.10
23065;DHT22;17153;51.212;3.228;2022-07-23T15:18:52;29.40;85.00
23065;DHT22;17153;51.212;3.228;2022-07-23T15:21:18;29.40;85.00
23065;DHT22;17153;51.212;3.228;2022-07-23T15:23:44;29.50;84.90
23065;DHT22;17153;51.212;3.228;2022-07-23T15:26:09;29.40;84.60
23065;DHT22;17153;51.212;3.228;2022-07-23T15:28:35;29.50;84.50
23065;DHT22;17153;51.212;3.228;2022-07-23T15:31:02;29.50;84.60
23065;DHT22;17153;51.212;3.228;2022-07-23T15:33:27;29.40;84.50
23065;DHT22;17153;51.212;3.228;2022-07-23T15:35:53;29.40;84.80
23065;DHT22;17153;51.212;3.228;2022-07-23T15:38:22;29.30;84.80
23065;DHT22;17153;51.212;3.228;2022-07-23T15:40:48;29.30;85.00
23065;DHT22;17153;51.212;3.228;2022-07-23T15:43:14;29.30;85.00
23065;DHT22;17153;51.212;3.228;2022-07-23T15:45:40;29.20;85.10
23065;DHT22;17153;51.212;3.228;2022-07-23T15:48:05;29.00;85.30
23065;DHT22;17153;51.212;3.228;2022-07-23T15:50:31;29.00;85.40
23065;DHT22;17153;51.212;3.228;2022-07-23T15:52:57;29.00;85.60
23065;DHT22;17153;51.212;3.228;2022-07-23T15:55:23;28.90;85.70
23065;DHT22;17153;51.212;3.228;2022-07-23T15:57:49;28.80;85.80
23065;DHT22;17153;51.212;3.228;2022-07-23T16:00:15;28.80;85.80
23065;DHT22;17153;51.212;3.228;2022-07-23T16:02:40;28.60;85.90
23065;DHT22;17153;51.212;3.228;2022-07-23T16:05:06;28.80;86.00
23065;DHT22;17153;51.212;3.228;2022-07-23T16:07:32;28.70;85.90
23065;DHT22;17153;51.212;3.228;2022-07-23T16:10:05;28.60;86.00
23065;DHT22;17153;51.212;3.228;2022-07-23T16:12:31;28.70;86.10